createdAt,value
2023-04-29T00:00:40.640Z,8.82
2023-04-29T00:03:09.416Z,9.32
2023-04-29T00:05:37.886Z,9.95
2023-04-29T00:08:06.611Z,10.70
2023-04-29T00:10:35.266Z,10.75
2023-04-29T00:13:04.976Z,10.27
2023-04-29T00:15:33.211Z,9.20
2023-04-29T00:18:01.730Z,10.27
2023-04-29T00:20:29.978Z,10.40
2023-04-29T00:22:58.436Z,10.80
2023-04-29T00:25:27.135Z,9.10
2023-04-29T00:27:55.387Z,10.65
2023-04-29T00:30:24.935Z,10.30
2023-04-29T00:32:53.406Z,9.27
2023-04-29T00:35:21.644Z,10.48
2023-04-29T00:37:49.963Z,10.88
2023-04-29T00:40:18.443Z,9.57
2023-04-29T00:42:46.646Z,9.82
2023-04-29T00:45:14.879Z,9.38
2023-04-29T00:47:44.928Z,10.27
2023-04-29T00:50:13.519Z,10.70
2023-04-29T00:52:41.753Z,9.15
2023-04-29T00:55:10.374Z,9.77
2023-04-29T00:57:39.256Z,10.55
2023-04-29T01:00:10.205Z,9.43
2023-04-29T01:02:39.392Z,9.50
2023-04-29T01:05:09.459Z,12.98
2023-04-29T01:07:47.005Z,12.77
2023-04-29T01:10:19.474Z,14.70
2023-04-29T01:12:55.438Z,12.77
2023-04-29T01:15:34.241Z,11.27
2023-04-29T01:18:08.151Z,11.27
2023-04-29T01:20:38.960Z,10.32
2023-04-29T01:23:07.290Z,10.93
2023-04-29T01:25:38.331Z,9.90
2023-04-29T01:28:27.212Z,11.63
2023-04-29T01:31:04.743Z,10.48
2023-04-29T01:33:42.948Z,10.57
2023-04-29T01:36:22.486Z,10.63
2023-04-29T01:38:59.132Z,10.70
2023-04-29T01:41:40.193Z,11.48
2023-04-29T01:44:19.752Z,10.77
2023-04-29T01:46:54.018Z,10.20
2023-04-29T01:49:26.509Z,10.15
2023-04-29T01:51:54.791Z,9.27
2023-04-29T01:54:23.316Z,9.60
2023-04-29T01:56:53.222Z,9.45
2023-04-29T01:59:32.497Z,10.20
2023-04-29T02:02:21.231Z,10.45
2023-04-29T02:04:57.988Z,10.45
2023-04-29T02:07:26.488Z,9.75
2023-04-29T02:09:55.090Z,8.90
2023-04-29T02:12:25.948Z,9.52
2023-04-29T02:14:54.850Z,8.98
2023-04-29T02:17:23.255Z,9.38
2023-04-29T02:19:51.849Z,9.05
2023-04-29T02:22:21.006Z,8.85
2023-04-29T02:24:49.408Z,8.82
2023-04-29T02:27:18.164Z,8.40
2023-04-29T02:29:47.871Z,7.82
2023-04-29T02:32:16.245Z,7.85
2023-04-29T02:34:44.912Z,8.70
2023-04-29T02:37:13.200Z,8.40
2023-04-29T02:39:41.483Z,9.10
2023-04-29T02:42:09.652Z,8.90
2023-04-29T02:44:38.032Z,9.15
2023-04-29T02:47:07.616Z,8.10
2023-04-29T02:49:54.930Z,9.85
2023-04-29T02:52:42.417Z,8.32
2023-04-29T02:55:11.049Z,7.95
2023-04-29T02:57:39.230Z,8.23
2023-04-29T03:00:09.085Z,9.10
2023-04-29T03:02:39.015Z,8.10
2023-04-29T03:05:08.131Z,8.80
2023-04-29T03:07:36.314Z,10.80
2023-04-29T03:10:04.918Z,10.50
2023-04-29T03:12:34.788Z,10.50
2023-04-29T03:15:03.491Z,9.30
2023-04-29T03:17:32.075Z,9.00
2023-04-29T03:20:01.734Z,9.32
2023-04-29T03:22:30.212Z,9.88
2023-04-29T03:24:58.485Z,9.52
2023-04-29T03:27:27.961Z,9.65
2023-04-29T03:29:56.780Z,10.65
2023-04-29T03:32:25.447Z,9.82
2023-04-29T03:34:54.662Z,8.88
2023-04-29T03:37:44.703Z,9.15
2023-04-29T03:40:25.500Z,9.68
2023-04-29T03:42:54.370Z,10.50
2023-04-29T03:45:22.697Z,9.13
2023-04-29T03:47:50.976Z,8.88
2023-04-29T03:50:19.475Z,8.82
2023-04-29T03:52:50.354Z,9.15
2023-04-29T03:55:20.163Z,8.43
2023-04-29T03:57:49.114Z,7.93
2023-04-29T04:00:19.848Z,8.32
2023-04-29T04:02:54.192Z,9.32
2023-04-29T04:05:25.271Z,8.15
2023-04-29T04:08:03.447Z,9.75
2023-04-29T04:10:54.758Z,9.60
2023-04-29T04:13:43.560Z,9.10
2023-04-29T04:16:12.573Z,10.38
2023-04-29T04:18:41.455Z,9.10
2023-04-29T04:21:11.346Z,9.05
2023-04-29T04:23:44.009Z,9.15
2023-04-29T04:26:14.948Z,8.95
2023-04-29T04:29:06.453Z,10.15
2023-04-29T04:31:46.992Z,9.10
2023-04-29T04:34:16.971Z,9.68
2023-04-29T04:36:47.148Z,9.27
2023-04-29T04:39:16.674Z,9.20
2023-04-29T04:41:44.916Z,9.07
2023-04-29T04:44:13.394Z,9.43
2023-04-29T04:47:02.308Z,9.38
2023-04-29T04:49:53.614Z,10.50
2023-04-29T04:52:23.179Z,10.18
2023-04-29T04:55:15.097Z,11.70
2023-04-29T04:57:46.427Z,10.25
2023-04-29T05:00:15.368Z,10.45
2023-04-29T05:02:43.837Z,10.05
2023-04-29T05:05:12.146Z,11.25
2023-04-29T05:07:42.705Z,12.52
2023-04-29T05:10:12.710Z,12.80
2023-04-29T05:12:49.601Z,12.82
2023-04-29T05:15:19.164Z,14.18
2023-04-29T05:17:49.862Z,13.18
2023-04-29T05:20:18.182Z,13.93
2023-04-29T05:22:46.427Z,15.50
2023-04-29T05:25:16.994Z,16.02
2023-04-29T05:27:45.251Z,14.35
2023-04-29T05:30:17.950Z,14.38
2023-04-29T05:32:48.887Z,14.10
2023-04-29T05:35:19.508Z,13.80
2023-04-29T05:37:48.171Z,13.20
2023-04-29T05:40:25.856Z,14.10
2023-04-29T05:43:00.101Z,13.68
2023-04-29T05:45:28.306Z,14.13
2023-04-29T05:47:56.922Z,12.73
2023-04-29T05:50:25.740Z,13.05
2023-04-29T05:52:54.763Z,12.82
2023-04-29T05:55:25.695Z,12.93
2023-04-29T05:57:53.945Z,13.27
2023-04-29T06:00:22.338Z,11.68
2023-04-29T06:02:58.725Z,11.48
2023-04-29T06:05:29.478Z,12.82
2023-04-29T06:08:16.440Z,11.73
2023-04-29T06:10:48.061Z,10.80
2023-04-29T06:13:17.097Z,11.88
2023-04-29T06:15:45.890Z,12.55
2023-04-29T06:18:15.701Z,10.98
2023-04-29T06:20:44.434Z,13.98
2023-04-29T06:23:12.753Z,10.88
2023-04-29T06:25:41.138Z,11.20
2023-04-29T06:28:12.254Z,12.55
2023-04-29T06:30:40.545Z,10.82
2023-04-29T06:33:09.716Z,10.57
2023-04-29T06:35:40.739Z,10.50
2023-04-29T06:38:24.741Z,11.48
2023-04-29T06:41:13.120Z,10.02
2023-04-29T06:44:19.389Z,10.82
2023-04-29T06:47:01.336Z,10.73
2023-04-29T06:49:50.072Z,11.57
2023-04-29T06:52:18.802Z,10.80
2023-04-29T06:54:48.200Z,12.60
2023-04-29T06:57:16.408Z,10.70
2023-04-29T06:59:49.188Z,10.30
2023-04-29T07:02:17.525Z,11.13
2023-04-29T07:04:49.712Z,11.18
2023-04-29T07:07:18.121Z,11.02
2023-04-29T07:09:46.414Z,12.65
2023-04-29T07:12:14.571Z,11.27
2023-04-29T07:14:43.136Z,10.57
2023-04-29T07:17:14.240Z,12.32
2023-04-29T07:19:43.546Z,13.25
2023-04-29T07:22:12.412Z,13.65
2023-04-29T07:24:40.639Z,11.88
2023-04-29T07:27:08.923Z,11.95
2023-04-29T07:29:38.609Z,12.00
2023-04-29T07:32:07.064Z,12.38
2023-04-29T07:34:38.837Z,13.50
2023-04-29T07:37:07.058Z,14.23
2023-04-29T07:39:35.720Z,13.98
2023-04-29T07:42:04.964Z,12.05
2023-04-29T07:44:33.285Z,12.77
2023-04-29T07:47:01.567Z,12.70
2023-04-29T07:49:29.829Z,12.00
2023-04-29T07:51:59.470Z,12.10
2023-04-29T07:54:27.854Z,12.53
2023-04-29T07:56:56.132Z,11.70
2023-04-29T07:59:24.374Z,10.47
2023-04-29T08:01:53.700Z,12.40
2023-04-29T08:04:22.725Z,10.40
2023-04-29T08:07:00.976Z,11.67
2023-04-29T08:09:30.115Z,11.37
2023-04-29T08:11:58.330Z,10.73
2023-04-29T08:14:26.756Z,9.97
2023-04-29T08:16:55.808Z,10.50
2023-04-29T08:19:24.105Z,9.53
2023-04-29T08:21:52.813Z,8.20
2023-04-29T08:24:22.775Z,7.60
2023-04-29T08:26:51.214Z,7.93
2023-04-29T08:29:19.564Z,8.07
2023-04-29T08:31:48.008Z,8.97
2023-04-29T08:34:16.271Z,9.20
2023-04-29T08:36:44.793Z,8.73
2023-04-29T08:39:12.928Z,9.43
2023-04-29T08:41:44.217Z,9.20
2023-04-29T08:44:12.423Z,9.17
2023-04-29T08:46:41.178Z,9.20
2023-04-29T08:49:09.540Z,9.30
2023-04-29T08:51:37.965Z,9.60
2023-04-29T08:54:06.558Z,9.60
2023-04-29T08:56:35.398Z,8.93
2023-04-29T08:59:08.279Z,9.60
2023-04-29T09:01:41.031Z,9.30
2023-04-29T09:04:14.512Z,9.47
2023-04-29T09:06:42.832Z,10.00
2023-04-29T09:09:11.747Z,8.97
2023-04-29T09:11:39.990Z,9.10
2023-04-29T09:14:09.577Z,8.70
2023-04-29T09:16:39.064Z,8.47
2023-04-29T09:19:07.330Z,8.40
2023-04-29T09:21:35.939Z,9.10
2023-04-29T09:24:04.985Z,10.00
2023-04-29T09:26:44.297Z,9.17
2023-04-29T09:29:16.396Z,9.70
2023-04-29T09:31:44.829Z,9.63
2023-04-29T09:34:13.362Z,9.37
2023-04-29T09:36:45.067Z,9.40
2023-04-29T09:39:15.309Z,9.33
2023-04-29T09:41:59.169Z,8.00
2023-04-29T09:44:32.996Z,9.67
2023-04-29T09:47:04.197Z,8.57
2023-04-29T09:49:35.889Z,9.37
2023-04-29T09:52:05.352Z,9.50
2023-04-29T09:54:36.295Z,8.43
2023-04-29T09:57:07.018Z,8.00
2023-04-29T09:59:37.913Z,8.93
2023-04-29T10:02:11.710Z,7.80
2023-04-29T10:04:42.646Z,7.77
2023-04-29T10:07:15.065Z,7.90
2023-04-29T10:09:43.407Z,9.97
2023-04-29T10:12:12.203Z,11.23
2023-04-29T10:14:46.941Z,7.77
2023-04-29T10:17:20.166Z,8.60
2023-04-29T10:19:52.876Z,8.77
2023-04-29T10:22:30.393Z,7.93
2023-04-29T10:25:00.288Z,8.33
2023-04-29T10:27:30.045Z,7.10
2023-04-29T10:30:02.096Z,7.30
2023-04-29T10:32:39.874Z,6.90
2023-04-29T10:35:19.232Z,7.30
2023-04-29T10:37:49.550Z,6.80
2023-04-29T10:40:21.267Z,7.50
2023-04-29T10:42:51.460Z,6.10
2023-04-29T10:45:31.337Z,12.90
2023-04-29T10:48:18.879Z,6.40
2023-04-29T10:51:03.675Z,8.30
2023-04-29T10:53:32.082Z,8.73
2023-04-29T10:56:05.867Z,8.13
2023-04-29T10:58:45.144Z,10.80
2023-04-29T11:01:16.661Z,20.03
2023-04-29T11:03:50.845Z,11.60
2023-04-29T11:06:19.200Z,7.30
2023-04-29T11:08:47.485Z,5.70
2023-04-29T11:11:16.759Z,5.27
2023-04-29T11:13:47.375Z,5.37
2023-04-29T11:16:17.183Z,5.30
2023-04-29T11:19:07.848Z,5.33
2023-04-29T11:21:37.522Z,7.97
2023-04-29T11:24:07.887Z,4.60
2023-04-29T11:26:36.996Z,3.97
2023-04-29T11:29:08.420Z,4.80
2023-04-29T11:31:39.272Z,3.80
2023-04-29T11:34:08.388Z,3.20
2023-04-29T11:36:37.292Z,3.53
2023-04-29T11:39:06.054Z,2.90
2023-04-29T11:41:35.904Z,3.80
2023-04-29T11:44:05.114Z,3.50
2023-04-29T11:46:33.383Z,3.60
2023-04-29T11:49:03.192Z,3.40
2023-04-29T11:51:32.912Z,3.73
2023-04-29T11:54:01.199Z,3.77
2023-04-29T11:56:29.542Z,3.00
2023-04-29T11:58:59.055Z,2.97
2023-04-29T12:01:27.620Z,4.00
2023-04-29T12:03:59.591Z,3.77
2023-04-29T12:06:31.841Z,4.03
2023-04-29T12:09:01.281Z,3.37
2023-04-29T12:11:29.571Z,4.20
2023-04-29T12:13:58.181Z,3.90
2023-04-29T12:16:29.403Z,3.40
2023-04-29T12:18:58.754Z,3.10
2023-04-29T12:21:27.502Z,3.70
2023-04-29T12:24:00.351Z,3.00
2023-04-29T12:26:30.232Z,3.00
2023-04-29T12:28:59.916Z,3.90
2023-04-29T12:31:35.547Z,3.53
2023-04-29T12:34:08.312Z,2.40
2023-04-29T12:36:38.303Z,2.63
2023-04-29T12:39:10.675Z,2.90
2023-04-29T12:41:39.919Z,2.90
2023-04-29T12:44:08.787Z,3.47
2023-04-29T12:46:38.378Z,3.47
2023-04-29T12:49:07.645Z,3.07
2023-04-29T12:51:36.773Z,3.93
2023-04-29T12:54:07.015Z,3.00
2023-04-29T12:56:36.575Z,2.97
2023-04-29T12:59:08.497Z,3.50
2023-04-29T13:01:36.856Z,3.80
2023-04-29T13:04:06.658Z,3.83
2023-04-29T13:06:39.363Z,3.23
2023-04-29T13:09:17.043Z,3.07
2023-04-29T13:11:48.256Z,2.77
2023-04-29T13:14:16.828Z,3.10
2023-04-29T13:16:45.264Z,3.33
2023-04-29T13:19:32.063Z,3.43
2023-04-29T13:22:01.830Z,3.50
2023-04-29T13:24:30.206Z,4.07
2023-04-29T13:27:00.211Z,3.03
2023-04-29T13:29:28.364Z,3.00
2023-04-29T13:31:56.779Z,2.70
2023-04-29T13:34:25.138Z,3.10
2023-04-29T13:36:53.416Z,3.10
2023-04-29T13:39:23.252Z,3.17
2023-04-29T13:41:51.751Z,2.93
2023-04-29T13:44:32.764Z,3.37
2023-04-29T13:47:07.801Z,2.87
2023-04-29T13:50:09.764Z,3.10
2023-04-29T13:55:38.999Z,2.87
2023-04-29T14:05:26.809Z,2.87
2023-04-29T14:07:55.192Z,2.50
2023-04-29T14:10:23.552Z,3.13
2023-04-29T14:12:51.852Z,3.87
2023-04-29T14:15:21.478Z,2.90
2023-04-29T14:17:50.544Z,2.40
2023-04-29T14:20:18.897Z,3.10
2023-04-29T14:22:47.167Z,3.10
2023-04-29T14:25:15.472Z,2.87
2023-04-29T14:27:43.685Z,2.37
2023-04-29T14:30:12.747Z,2.70
2023-04-29T14:32:42.370Z,3.10
2023-04-29T14:35:11.374Z,3.50
2023-04-29T14:37:40.124Z,4.00
2023-04-29T14:40:09.441Z,3.20
2023-04-29T14:42:37.699Z,3.30
2023-04-29T14:45:07.009Z,3.10
2023-04-29T14:47:35.287Z,3.33
2023-04-29T14:50:05.286Z,4.10
2023-04-29T14:52:33.526Z,3.33
2023-04-29T14:55:01.863Z,3.43
2023-04-29T14:57:30.825Z,3.83
2023-04-29T14:59:59.098Z,4.87
2023-04-29T15:02:27.333Z,4.00
2023-04-29T15:04:55.774Z,3.90
2023-04-29T15:07:25.991Z,4.50
2023-04-29T15:09:54.271Z,8.63
2023-04-29T15:12:23.019Z,4.70
2023-04-29T15:14:52.885Z,4.20
2023-04-29T15:17:21.276Z,5.03
2023-04-29T15:19:49.488Z,4.50
2023-04-29T15:22:18.155Z,4.23
2023-04-29T15:27:17.301Z,4.60
2023-04-29T15:29:45.480Z,4.23
2023-04-29T15:32:13.911Z,4.10
2023-04-29T15:34:42.103Z,3.67
2023-04-29T15:37:10.374Z,3.63
2023-04-29T15:39:38.530Z,4.70
2023-04-29T15:42:09.555Z,5.03
2023-04-29T15:44:37.813Z,4.10
2023-04-29T15:47:06.236Z,4.70
2023-04-29T15:49:34.398Z,4.53
2023-04-29T15:52:02.726Z,3.90
2023-04-29T15:54:31.295Z,4.40
2023-04-29T15:56:59.629Z,5.07
2023-04-29T15:59:29.498Z,4.00
2023-04-29T16:01:57.673Z,4.63
2023-04-29T16:04:26.212Z,4.20
2023-04-29T16:06:54.652Z,5.20
2023-04-29T16:09:23.006Z,4.13
2023-04-29T16:11:53.664Z,5.77
2023-04-29T16:14:21.956Z,4.77
2023-04-29T16:16:51.543Z,8.37
2023-04-29T16:19:19.844Z,7.30
2023-04-29T16:21:48.044Z,5.60
2023-04-29T16:24:16.776Z,5.40
2023-04-29T16:26:45.131Z,5.10
2023-04-29T16:29:13.659Z,4.53
2023-04-29T16:31:41.861Z,4.90
2023-04-29T16:34:11.769Z,5.87
2023-04-29T16:36:40.434Z,6.07
2023-04-29T16:39:09.292Z,5.43
2023-04-29T16:41:37.413Z,5.80
2023-04-29T16:44:05.933Z,4.40
2023-04-29T16:46:34.522Z,4.67
2023-04-29T16:49:03.098Z,5.07
2023-04-29T16:51:33.674Z,5.93
2023-04-29T16:54:02.038Z,5.40
2023-04-29T16:56:30.222Z,5.80
2023-04-29T16:58:58.470Z,6.37
2023-04-29T17:01:26.726Z,6.10
2023-04-29T17:03:54.956Z,5.40
2023-04-29T17:06:23.299Z,6.55
2023-04-29T17:08:53.301Z,6.20
2023-04-29T17:11:21.432Z,6.27
2023-04-29T17:13:50.672Z,7.13
2023-04-29T17:16:19.239Z,8.50
2023-04-29T17:18:47.547Z,9.23
2023-04-29T17:21:15.704Z,11.75
2023-04-29T17:23:44.005Z,10.40
2023-04-29T17:26:13.705Z,8.73
2023-04-29T17:28:41.910Z,7.18
2023-04-29T17:31:10.261Z,6.50
2023-04-29T17:33:39.902Z,7.20
2023-04-29T17:36:08.324Z,8.18
2023-04-29T17:38:36.660Z,16.05
2023-04-29T17:41:04.852Z,11.55
2023-04-29T17:43:35.562Z,14.70
2023-04-29T17:46:03.931Z,14.32
2023-04-29T17:48:32.514Z,14.73
2023-04-29T17:51:00.717Z,8.70
2023-04-29T17:53:29.449Z,8.95
2023-04-29T17:55:58.162Z,6.72
2023-04-29T17:58:29.068Z,6.28
2023-04-29T18:00:59.584Z,7.40
2023-04-29T18:03:30.830Z,7.88
2023-04-29T18:05:59.361Z,8.73
2023-04-29T18:08:27.825Z,8.93
2023-04-29T18:10:56.051Z,8.25
2023-04-29T18:13:26.528Z,8.20
2023-04-29T18:15:55.528Z,7.40
2023-04-29T18:18:26.084Z,8.13
2023-04-29T18:20:54.249Z,8.25
2023-04-29T18:23:22.834Z,7.10
2023-04-29T18:25:51.169Z,6.60
2023-04-29T18:28:25.196Z,7.10
2023-04-29T18:30:54.966Z,6.68
2023-04-29T18:33:26.594Z,7.28
2023-04-29T18:35:55.668Z,7.40
2023-04-29T18:38:24.540Z,7.82
2023-04-29T18:40:53.150Z,8.45
2023-04-29T18:43:24.691Z,9.10
2023-04-29T18:45:53.156Z,9.10
2023-04-29T18:48:21.676Z,10.83
2023-04-29T18:50:52.286Z,9.73
2023-04-29T18:53:20.680Z,9.30
2023-04-29T18:55:48.896Z,9.52
2023-04-29T18:58:17.366Z,16.60
2023-04-29T19:00:45.591Z,13.10
2023-04-29T19:03:14.631Z,9.17
2023-04-29T19:05:42.913Z,10.60
2023-04-29T19:08:16.280Z,9.27
2023-04-29T19:10:45.117Z,11.97
2023-04-29T19:13:13.461Z,11.30
2023-04-29T19:15:41.674Z,10.97
2023-04-29T19:18:09.875Z,11.00
2023-04-29T19:20:38.175Z,9.70
2023-04-29T19:23:07.403Z,10.57
2023-04-29T19:25:37.106Z,11.07
2023-04-29T19:28:05.489Z,10.27
2023-04-29T19:30:34.875Z,12.70
2023-04-29T19:33:03.148Z,11.90
2023-04-29T19:35:31.448Z,11.93
2023-04-29T19:37:59.684Z,11.83
2023-04-29T19:40:27.900Z,11.03
2023-04-29T19:42:57.526Z,10.40
2023-04-29T19:45:26.497Z,7.87
2023-04-29T19:47:55.401Z,10.33
2023-04-29T19:50:24.118Z,11.50
2023-04-29T19:52:52.416Z,10.47
2023-04-29T19:55:20.585Z,11.00
2023-04-29T19:57:48.780Z,10.03
2023-04-29T20:00:18.304Z,10.67
2023-04-29T20:02:50.752Z,11.00
2023-04-29T20:05:19.721Z,11.00
2023-04-29T20:07:47.918Z,10.50
2023-04-29T20:10:16.129Z,10.23
2023-04-29T20:12:44.286Z,10.90
2023-04-29T20:15:12.647Z,11.77
2023-04-29T20:17:42.371Z,10.87
2023-04-29T20:20:11.232Z,12.03
2023-04-29T20:22:39.758Z,12.20
2023-04-29T20:25:08.626Z,13.73
2023-04-29T20:27:36.989Z,12.00
2023-04-29T20:30:06.101Z,14.23
2023-04-29T20:32:34.260Z,12.60
2023-04-29T20:35:04.461Z,10.67
2023-04-29T20:37:32.873Z,10.73
2023-04-29T20:40:01.057Z,11.05
2023-04-29T20:42:29.471Z,11.13
2023-04-29T20:44:57.659Z,13.83
2023-04-29T20:47:25.927Z,14.93
2023-04-29T20:49:54.360Z,15.10
2023-04-29T20:52:24.755Z,13.80
2023-04-29T20:54:53.027Z,14.32
2023-04-29T20:57:21.275Z,13.25
2023-04-29T20:59:49.452Z,13.88
2023-04-29T21:02:17.685Z,13.10
2023-04-29T21:04:46.294Z,14.32
2023-04-29T21:07:14.622Z,13.70
2023-04-29T21:09:44.253Z,14.00
2023-04-29T21:12:14.898Z,13.57
2023-04-29T21:14:44.459Z,13.48
2023-04-29T21:17:12.851Z,13.18
2023-04-29T21:19:41.155Z,13.32
2023-04-29T21:22:09.308Z,13.85
2023-04-29T21:24:37.560Z,12.63
2023-04-29T21:27:07.188Z,12.95
2023-04-29T21:29:40.723Z,15.05
2023-04-29T21:32:09.151Z,14.18
2023-04-29T21:34:37.351Z,14.10
2023-04-29T21:37:05.588Z,15.23
2023-04-29T21:39:33.838Z,14.43
2023-04-29T21:42:03.999Z,14.85
2023-04-29T21:44:34.906Z,14.68
2023-04-29T21:47:04.582Z,14.38
2023-04-29T21:49:33.332Z,13.70
2023-04-29T21:52:01.739Z,13.38
2023-04-29T21:54:30.001Z,14.02
2023-04-29T21:56:58.202Z,13.88
2023-04-29T21:59:26.392Z,14.27
2023-04-29T22:02:00.533Z,12.82
2023-04-29T22:04:29.396Z,13.48
2023-04-29T22:06:59.985Z,14.38
2023-04-29T22:09:28.173Z,15.35
2023-04-29T22:11:56.402Z,14.57
2023-04-29T22:14:24.689Z,14.30
2023-04-29T22:16:52.911Z,13.40
2023-04-29T22:19:22.584Z,13.95
2023-04-29T22:21:50.812Z,13.73
2023-04-29T22:24:18.975Z,13.82
2023-04-29T22:26:47.181Z,13.13
2023-04-29T22:29:15.313Z,13.80
2023-04-29T22:31:43.558Z,13.98
2023-04-29T22:34:11.841Z,14.07
2023-04-29T22:36:41.376Z,13.98
2023-04-29T22:39:09.585Z,12.68
2023-04-29T22:41:37.721Z,12.50
2023-04-29T22:44:06.033Z,12.70
2023-04-29T22:46:34.435Z,12.43
2023-04-29T22:49:03.088Z,13.55
2023-04-29T22:51:31.731Z,13.82
2023-04-29T22:54:01.289Z,12.68
2023-04-29T22:56:29.677Z,13.10
2023-04-29T22:58:57.956Z,14.32
2023-04-29T23:01:26.300Z,14.10
2023-04-29T23:03:54.533Z,14.85
2023-04-29T23:06:23.038Z,15.48
2023-04-29T23:08:51.474Z,15.07
2023-04-29T23:11:21.362Z,16.00
2023-04-29T23:13:49.731Z,17.40
2023-04-29T23:16:17.927Z,15.98
2023-04-29T23:18:46.232Z,15.55
2023-04-29T23:21:14.529Z,17.48
2023-04-29T23:23:42.786Z,14.88
2023-04-29T23:26:11.298Z,17.63
2023-04-29T23:28:40.963Z,17.50
2023-04-29T23:31:09.206Z,16.55
2023-04-29T23:33:37.449Z,16.45
2023-04-29T23:36:06.663Z,17.30
2023-04-29T23:38:34.912Z,17.30
2023-04-29T23:41:03.133Z,15.80
2023-04-29T23:43:31.394Z,17.67
2023-04-29T23:46:01.092Z,17.40
2023-04-29T23:48:29.392Z,18.25
2023-04-29T23:50:57.574Z,15.48
2023-04-29T23:53:25.889Z,16.17
2023-04-29T23:55:54.157Z,15.20
2023-04-29T23:58:22.398Z,13.43
